createdAt,value
2022-10-14T00:01:24.972Z,12.11
2022-10-14T00:03:52.088Z,11.95
2022-10-14T00:06:23.819Z,11.77
2022-10-14T00:08:50.767Z,11.30
2022-10-14T00:11:25.606Z,12.20
2022-10-14T00:13:57.603Z,11.95
2022-10-14T00:16:32.595Z,12.12
2022-10-14T00:18:59.646Z,11.59
2022-10-14T00:21:29.581Z,11.87
2022-10-14T00:24:01.637Z,12.14
2022-10-14T00:26:36.603Z,12.07
2022-10-14T00:29:06.288Z,12.09
2022-10-14T00:31:33.932Z,11.99
2022-10-14T00:34:05.643Z,11.59
2022-10-14T00:36:34.632Z,12.07
2022-10-14T00:39:01.430Z,11.77
2022-10-14T00:41:31.321Z,12.09
2022-10-14T00:44:03.370Z,12.08
2022-10-14T00:46:34.588Z,11.71
2022-10-14T00:49:09.140Z,12.05
2022-10-14T00:51:37.383Z,11.54
2022-10-14T00:54:04.467Z,11.32
2022-10-14T00:56:31.228Z,10.74
2022-10-14T00:59:00.617Z,11.50
2022-10-14T01:01:27.200Z,12.00
2022-10-14T01:03:59.256Z,11.68
2022-10-14T01:06:53.067Z,11.98
2022-10-14T01:09:38.956Z,11.65
2022-10-14T01:12:29.437Z,11.96
2022-10-14T01:15:21.579Z,11.96
2022-10-14T01:18:19.281Z,10.83
2022-10-14T01:21:14.965Z,11.74
2022-10-14T01:24:05.238Z,11.78
2022-10-14T01:26:48.893Z,11.83
2022-10-14T01:29:24.716Z,11.85
2022-10-14T01:32:00.524Z,11.70
2022-10-14T01:34:34.289Z,11.86
2022-10-14T01:37:06.120Z,11.17
2022-10-14T01:39:41.616Z,11.86
2022-10-14T01:42:11.769Z,11.70
2022-10-14T01:44:44.658Z,11.86
2022-10-14T01:47:14.382Z,11.40
2022-10-14T01:49:46.961Z,10.94
2022-10-14T01:52:22.642Z,11.83
2022-10-14T01:54:54.328Z,11.43
2022-10-14T01:57:25.064Z,11.82
2022-10-14T01:59:53.338Z,11.36
2022-10-14T02:02:20.822Z,10.46
2022-10-14T02:04:50.488Z,10.52
2022-10-14T02:07:19.698Z,11.46
2022-10-14T02:10:04.006Z,11.53
2022-10-14T02:12:52.182Z,11.65
2022-10-14T02:15:32.483Z,11.74
2022-10-14T02:18:17.793Z,11.75
2022-10-14T02:21:05.852Z,11.81
2022-10-14T02:23:49.138Z,10.44
2022-10-14T02:26:20.749Z,11.88
2022-10-14T02:28:51.289Z,11.84
2022-10-14T02:31:20.290Z,11.97
2022-10-14T02:33:53.311Z,11.97
2022-10-14T02:36:23.636Z,10.96
2022-10-14T02:38:50.701Z,11.96
2022-10-14T02:41:19.903Z,11.82
2022-10-14T02:43:54.315Z,11.56
2022-10-14T02:46:23.705Z,11.43
2022-10-14T02:48:52.836Z,11.85
2022-10-14T02:51:22.271Z,11.87
2022-10-14T02:53:51.309Z,11.87
2022-10-14T02:56:18.443Z,11.89
2022-10-14T02:58:47.680Z,11.54
2022-10-14T03:01:19.257Z,11.92
2022-10-14T03:03:48.930Z,11.93
2022-10-14T03:06:19.480Z,11.94
2022-10-14T03:08:46.904Z,11.92
2022-10-14T03:11:16.310Z,11.92
2022-10-14T03:13:46.580Z,11.86
2022-10-14T03:16:15.875Z,11.32
2022-10-14T03:18:44.657Z,11.19
2022-10-14T03:21:20.799Z,11.17
2022-10-14T03:23:48.575Z,11.90
2022-10-14T03:26:15.306Z,11.24
2022-10-14T03:28:46.307Z,11.86
2022-10-14T03:31:28.515Z,10.96
2022-10-14T03:34:24.334Z,11.65
2022-10-14T03:37:00.543Z,11.58
2022-10-14T03:39:27.478Z,11.11
2022-10-14T03:42:00.784Z,11.00
2022-10-14T03:44:34.167Z,10.98
2022-10-14T03:47:11.777Z,11.46
2022-10-14T03:49:38.625Z,11.18
2022-10-14T03:52:15.901Z,11.71
2022-10-14T03:54:44.088Z,11.59
2022-10-14T03:57:16.526Z,11.78
2022-10-14T03:59:51.944Z,11.68
2022-10-14T04:02:19.991Z,11.87
2022-10-14T04:04:47.635Z,11.38
2022-10-14T04:07:17.147Z,11.38
2022-10-14T04:09:52.811Z,11.44
2022-10-14T04:12:22.686Z,11.20
2022-10-14T04:15:00.213Z,11.81
2022-10-14T04:17:33.074Z,11.99
2022-10-14T04:20:08.296Z,12.08
2022-10-14T04:22:36.425Z,12.06
2022-10-14T04:25:05.860Z,11.21
2022-10-14T04:27:35.316Z,11.96
2022-10-14T04:30:11.874Z,10.91
2022-10-14T04:32:51.264Z,11.22
2022-10-14T04:35:18.927Z,11.47
2022-10-14T04:37:51.394Z,11.54
2022-10-14T04:40:26.502Z,11.50
2022-10-14T04:42:58.629Z,10.92
2022-10-14T04:45:39.921Z,11.81
2022-10-14T04:48:19.163Z,11.31
2022-10-14T04:50:47.096Z,11.23
2022-10-14T04:53:27.784Z,10.79
2022-10-14T04:56:07.286Z,11.65
2022-10-14T04:58:41.159Z,11.40
2022-10-14T05:01:10.893Z,11.97
2022-10-14T05:03:40.128Z,11.24
2022-10-14T05:06:06.868Z,11.43
2022-10-14T05:08:39.601Z,11.74
2022-10-14T05:11:09.504Z,12.13
2022-10-14T05:13:42.364Z,11.78
2022-10-14T05:16:13.943Z,11.86
2022-10-14T05:18:43.186Z,12.22
2022-10-14T05:21:12.164Z,12.22
2022-10-14T05:23:57.709Z,11.81
2022-10-14T05:26:26.657Z,11.38
2022-10-14T05:28:54.831Z,11.96
2022-10-14T05:31:21.847Z,11.99
2022-10-14T05:34:03.465Z,12.24
2022-10-14T05:36:30.196Z,12.12
2022-10-14T05:38:58.774Z,12.12
2022-10-14T05:41:29.953Z,12.41
2022-10-14T05:43:56.801Z,12.63
2022-10-14T05:46:23.645Z,12.44
2022-10-14T05:48:57.375Z,12.27
2022-10-14T05:51:29.628Z,12.43
2022-10-14T05:54:05.360Z,12.41
2022-10-14T05:56:32.681Z,12.68
2022-10-14T05:59:01.609Z,12.27
2022-10-14T06:01:34.575Z,12.87
2022-10-14T06:04:02.205Z,12.39
2022-10-14T06:06:29.182Z,12.46
2022-10-14T06:08:58.225Z,12.97
2022-10-14T06:11:25.203Z,12.59
2022-10-14T06:13:52.453Z,13.03
2022-10-14T06:16:23.871Z,13.21
2022-10-14T06:18:54.240Z,13.27
2022-10-14T06:21:22.168Z,12.94
2022-10-14T06:23:48.945Z,13.38
2022-10-14T06:26:15.693Z,13.33
2022-10-14T06:28:42.462Z,13.12
2022-10-14T06:31:09.505Z,13.03
2022-10-14T06:33:38.995Z,13.14
2022-10-14T06:36:07.002Z,13.34
2022-10-14T06:38:33.692Z,13.02
2022-10-14T06:41:00.456Z,13.36
2022-10-14T06:43:27.448Z,13.11
2022-10-14T06:45:59.674Z,13.28
2022-10-14T06:48:29.067Z,13.39
2022-10-14T06:51:02.903Z,13.32
2022-10-14T06:53:30.776Z,12.98
2022-10-14T06:56:02.004Z,13.24
2022-10-14T06:58:31.507Z,13.45
2022-10-14T07:01:04.759Z,13.64
2022-10-14T07:03:31.888Z,13.70
2022-10-14T07:05:58.594Z,13.26
2022-10-14T07:08:25.365Z,13.44
2022-10-14T07:10:52.247Z,13.14
2022-10-14T07:13:21.209Z,13.86
2022-10-14T07:15:52.000Z,13.88
2022-10-14T07:18:19.398Z,13.92
2022-10-14T07:20:48.343Z,14.03
2022-10-14T07:23:15.287Z,13.52
2022-10-14T07:25:42.010Z,14.08
2022-10-14T07:28:14.194Z,13.36
2022-10-14T07:30:44.136Z,14.46
2022-10-14T07:33:10.902Z,14.29
2022-10-14T07:35:39.025Z,14.30
2022-10-14T07:38:08.521Z,14.76
2022-10-14T07:40:35.427Z,14.87
2022-10-14T07:43:02.153Z,14.72
2022-10-14T07:45:35.477Z,14.81
2022-10-14T07:48:02.390Z,14.92
2022-10-14T07:50:29.783Z,14.47
2022-10-14T07:53:00.903Z,15.19
2022-10-14T07:55:28.049Z,14.28
2022-10-14T07:57:57.478Z,15.22
2022-10-14T08:00:24.195Z,15.25
2022-10-14T08:02:51.153Z,15.76
2022-10-14T08:05:37.069Z,15.33
2022-10-14T08:08:07.904Z,16.11
2022-10-14T08:10:34.969Z,14.53
2022-10-14T08:13:04.436Z,16.42
2022-10-14T08:15:40.412Z,16.41
2022-10-14T08:18:12.813Z,16.08
2022-10-14T08:20:39.521Z,15.83
2022-10-14T08:23:06.196Z,16.03
2022-10-14T08:25:37.665Z,15.67
2022-10-14T08:28:06.576Z,16.94
2022-10-14T08:30:33.435Z,16.01
2022-10-14T08:33:06.187Z,17.18
2022-10-14T08:35:32.882Z,17.35
2022-10-14T08:38:01.326Z,16.77
2022-10-14T08:40:29.059Z,17.42
2022-10-14T08:42:55.780Z,17.92
2022-10-14T08:45:30.151Z,18.02
2022-10-14T08:48:00.123Z,17.53
2022-10-14T08:51:03.654Z,18.05
2022-10-14T08:53:34.859Z,16.38
2022-10-14T08:56:02.625Z,17.69
2022-10-14T08:58:54.573Z,18.09
2022-10-14T09:01:37.460Z,18.22
2022-10-14T09:04:08.470Z,18.34
2022-10-14T09:06:36.829Z,18.07
2022-10-14T09:09:32.810Z,18.28
2022-10-14T09:12:03.939Z,17.91
2022-10-14T09:14:34.581Z,17.69
2022-10-14T09:19:42.792Z,17.62
2022-10-14T09:22:16.134Z,18.75
2022-10-14T09:24:48.312Z,18.15
2022-10-14T09:27:22.139Z,17.87
2022-10-14T09:30:00.709Z,17.87
2022-10-14T09:32:28.914Z,18.83
2022-10-14T09:35:01.405Z,19.46
2022-10-14T09:37:28.250Z,19.47
2022-10-14T09:40:01.541Z,19.52
2022-10-14T09:42:36.844Z,19.70
2022-10-14T09:45:23.724Z,19.79
2022-10-14T09:48:07.537Z,19.27
2022-10-14T09:50:43.605Z,19.83
2022-10-14T09:53:21.278Z,20.26
2022-10-14T09:55:52.268Z,20.03
2022-10-14T09:58:29.090Z,19.49
2022-10-14T10:00:58.170Z,19.11
2022-10-14T10:03:39.853Z,19.86
2022-10-14T10:06:15.026Z,21.02
2022-10-14T10:08:54.002Z,21.17
2022-10-14T10:11:40.103Z,20.00
2022-10-14T10:14:26.652Z,21.44
2022-10-14T10:17:08.695Z,21.63
2022-10-14T10:19:39.615Z,21.83
2022-10-14T10:22:22.746Z,22.02
2022-10-14T10:25:12.515Z,21.99
2022-10-14T10:27:49.608Z,21.50
2022-10-14T10:30:22.082Z,22.41
2022-10-14T10:33:07.294Z,22.62
2022-10-14T10:36:06.529Z,22.57
2022-10-14T10:39:24.719Z,23.00
2022-10-14T10:42:12.855Z,23.05
2022-10-14T10:45:16.078Z,23.25
2022-10-14T10:47:45.901Z,23.56
2022-10-14T10:50:30.739Z,23.76
2022-10-14T10:53:11.601Z,23.84
2022-10-14T10:55:44.545Z,24.12
2022-10-14T10:58:34.412Z,23.90
2022-10-14T11:01:16.663Z,23.97
2022-10-14T11:04:03.202Z,22.54
2022-10-14T11:06:54.503Z,20.64
2022-10-14T11:10:14.982Z,23.69
2022-10-14T11:13:02.086Z,23.25
2022-10-14T11:15:47.325Z,23.35
2022-10-14T11:18:56.813Z,21.05
2022-10-14T11:21:53.658Z,24.08
2022-10-14T11:24:47.529Z,24.62
2022-10-14T11:27:22.354Z,24.15
2022-10-14T11:30:18.904Z,24.61
2022-10-14T11:33:10.467Z,24.65
2022-10-14T11:35:55.851Z,24.96
2022-10-14T11:38:49.986Z,24.98
2022-10-14T11:41:40.429Z,25.14
2022-10-14T11:44:20.230Z,25.54
2022-10-14T11:46:51.991Z,25.46
2022-10-14T11:49:26.998Z,25.49
2022-10-14T11:52:20.199Z,25.46
2022-10-14T11:55:23.483Z,25.44
2022-10-14T11:57:56.885Z,25.19
2022-10-14T12:03:09.342Z,26.03
2022-10-14T12:05:51.452Z,26.60
2022-10-14T12:08:35.722Z,26.72
2022-10-14T12:11:07.811Z,26.95
2022-10-14T12:13:47.614Z,27.43
2022-10-14T12:16:18.351Z,27.42
2022-10-14T12:18:52.887Z,28.13
2022-10-14T12:21:32.499Z,25.53
2022-10-14T12:24:14.544Z,27.43
2022-10-14T12:26:47.421Z,27.62
2022-10-14T12:29:22.183Z,27.47
2022-10-14T12:32:05.616Z,27.24
2022-10-14T12:34:42.752Z,26.96
2022-10-14T12:37:38.183Z,27.03
2022-10-14T12:40:07.972Z,27.34
2022-10-14T12:42:59.020Z,27.76
2022-10-14T12:45:33.392Z,28.58
2022-10-14T12:48:19.368Z,29.42
2022-10-14T12:50:51.731Z,27.95
2022-10-14T12:53:25.431Z,27.89
2022-10-14T12:56:03.339Z,26.87
2022-10-14T12:58:41.173Z,27.89
2022-10-14T13:01:20.087Z,28.40
2022-10-14T13:04:19.920Z,28.33
2022-10-14T13:07:35.501Z,28.85
2022-10-14T13:10:20.739Z,27.78
2022-10-14T13:12:50.378Z,27.58
2022-10-14T13:15:37.924Z,27.83
2022-10-14T13:18:31.264Z,28.13
2022-10-14T13:21:01.099Z,27.19
2022-10-14T13:23:33.546Z,28.28
2022-10-14T13:26:17.541Z,28.47
2022-10-14T13:29:02.963Z,28.82
2022-10-14T13:31:40.974Z,28.01
2022-10-14T13:34:32.007Z,28.66
2022-10-14T13:37:26.716Z,27.36
2022-10-14T13:39:53.924Z,28.28
2022-10-14T13:42:36.095Z,27.33
2022-10-14T13:45:10.566Z,27.64
2022-10-14T13:47:37.380Z,26.89
2022-10-14T13:50:15.620Z,27.44
2022-10-14T13:52:54.508Z,26.78
2022-10-14T13:55:23.801Z,27.54
2022-10-14T13:58:16.996Z,27.55
2022-10-14T14:00:58.912Z,26.39
2022-10-14T14:03:42.201Z,29.04
2022-10-14T14:06:18.157Z,28.49
2022-10-14T14:09:05.065Z,26.96
2022-10-14T14:11:33.757Z,23.58
2022-10-14T14:14:10.111Z,26.69
2022-10-14T14:16:41.686Z,24.78
2022-10-14T14:19:21.939Z,25.41
2022-10-14T14:21:51.204Z,25.88
2022-10-14T14:24:25.308Z,23.64
2022-10-14T14:26:55.514Z,25.79
2022-10-14T14:29:28.366Z,25.54
2022-10-14T14:32:11.791Z,26.50
2022-10-14T14:34:39.983Z,25.44
2022-10-14T14:40:06.099Z,25.64
2022-10-14T14:42:40.632Z,24.84
2022-10-14T14:45:16.894Z,23.00
2022-10-14T14:47:44.178Z,23.82
2022-10-14T14:50:30.145Z,23.04
2022-10-14T14:53:11.713Z,23.28
2022-10-14T14:55:44.384Z,22.62
2022-10-14T14:58:19.999Z,22.61
2022-10-14T15:00:51.643Z,22.57
2022-10-14T15:03:20.714Z,22.44
2022-10-14T15:05:57.343Z,20.92
2022-10-14T15:08:32.579Z,21.75
2022-10-14T15:11:00.407Z,21.85
2022-10-14T15:13:38.083Z,22.27
2022-10-14T15:16:07.586Z,22.37
2022-10-14T15:18:37.475Z,21.32
2022-10-14T15:21:15.856Z,22.37
2022-10-14T15:23:48.538Z,22.41
2022-10-14T15:26:31.323Z,22.30
2022-10-14T15:32:16.509Z,21.37
2022-10-14T15:34:44.206Z,21.45
2022-10-14T15:37:13.148Z,21.75
2022-10-14T15:39:40.113Z,21.59
2022-10-14T15:42:12.179Z,20.89
2022-10-14T15:44:38.845Z,20.99
2022-10-14T15:47:20.697Z,20.47
2022-10-14T15:49:50.052Z,21.01
2022-10-14T15:52:19.354Z,20.79
2022-10-14T15:54:50.941Z,20.43
2022-10-14T15:57:17.636Z,20.24
2022-10-14T15:59:47.807Z,19.64
2022-10-14T16:02:22.577Z,20.43
2022-10-14T16:05:18.348Z,19.02
2022-10-14T16:07:40.086Z,19.72
2022-10-14T16:10:08.001Z,19.90
2022-10-14T16:12:39.703Z,19.47
2022-10-14T16:15:43.976Z,20.04
2022-10-14T16:18:10.691Z,19.69
2022-10-14T16:20:37.860Z,19.15
2022-10-14T16:23:08.071Z,19.45
2022-10-14T16:25:39.996Z,19.04
2022-10-14T16:28:10.273Z,19.00
2022-10-14T16:30:44.005Z,18.86
2022-10-14T16:35:43.571Z,18.45
2022-10-14T16:38:13.190Z,18.47
2022-10-14T16:40:44.698Z,18.00
2022-10-14T16:43:12.970Z,17.95
2022-10-14T16:45:42.070Z,18.47
2022-10-14T16:48:08.786Z,18.09
2022-10-14T16:50:40.407Z,18.45
2022-10-14T16:53:28.110Z,17.62
2022-10-14T16:55:57.396Z,18.01
2022-10-14T16:58:27.756Z,18.50
2022-10-14T17:00:54.956Z,18.48
2022-10-14T17:03:21.830Z,17.82
2022-10-14T17:05:58.974Z,17.90
2022-10-14T17:08:28.006Z,17.60
2022-10-14T17:10:58.892Z,17.91
2022-10-14T17:13:25.733Z,17.64
2022-10-14T17:16:04.096Z,17.87
2022-10-14T17:18:34.682Z,17.77
2022-10-14T17:21:02.650Z,17.62
2022-10-14T17:23:32.018Z,16.65
2022-10-14T17:26:02.164Z,17.82
2022-10-14T17:28:30.091Z,17.79
2022-10-14T17:30:57.814Z,17.79
2022-10-14T17:33:26.158Z,17.71
2022-10-14T17:35:57.381Z,17.07
2022-10-14T17:38:27.805Z,17.31
2022-10-14T17:41:09.033Z,17.01
2022-10-14T17:43:39.422Z,17.55
2022-10-14T17:48:42.568Z,17.52
2022-10-14T17:51:16.402Z,17.37
2022-10-14T17:53:45.856Z,16.95
2022-10-14T17:56:17.527Z,16.92
2022-10-14T17:58:44.102Z,16.95
2022-10-14T18:01:15.510Z,16.87
2022-10-14T18:03:45.232Z,16.89
2022-10-14T18:06:15.833Z,16.07
2022-10-14T18:08:44.089Z,16.67
2022-10-14T18:11:12.396Z,16.85
2022-10-14T18:13:41.832Z,16.82
2022-10-14T18:16:14.388Z,16.70
2022-10-14T18:18:43.709Z,16.82
2022-10-14T18:21:10.310Z,16.82
2022-10-14T18:23:40.530Z,16.16
2022-10-14T18:26:13.478Z,16.31
2022-10-14T18:28:42.639Z,16.68
2022-10-14T18:31:12.504Z,16.67
2022-10-14T18:33:40.184Z,16.66
2022-10-14T18:36:08.173Z,16.50
2022-10-14T18:38:37.536Z,16.35
2022-10-14T18:41:10.215Z,16.60
2022-10-14T18:43:37.211Z,16.29
2022-10-14T18:46:13.164Z,16.07
2022-10-14T18:48:44.719Z,15.96
2022-10-14T18:51:12.025Z,16.35
2022-10-14T18:53:43.555Z,16.34
2022-10-14T18:56:15.327Z,16.34
2022-10-14T18:59:07.135Z,16.25
2022-10-14T19:01:37.194Z,16.22
2022-10-14T19:04:07.403Z,15.44
2022-10-14T19:06:34.797Z,15.39
2022-10-14T19:09:01.914Z,15.74
2022-10-14T19:11:32.267Z,16.00
2022-10-14T19:14:00.368Z,16.00
2022-10-14T19:16:34.392Z,15.93
2022-10-14T19:19:08.132Z,15.93
2022-10-14T19:21:35.043Z,15.71
2022-10-14T19:24:04.527Z,15.79
2022-10-14T19:26:36.169Z,15.80
2022-10-14T19:29:06.470Z,15.48
2022-10-14T19:31:36.247Z,15.33
2022-10-14T19:34:06.226Z,15.79
2022-10-14T19:36:37.948Z,15.75
2022-10-14T19:39:12.587Z,15.41
2022-10-14T19:41:49.901Z,15.01
2022-10-14T19:46:57.891Z,15.66
2022-10-14T19:49:24.600Z,15.42
2022-10-14T19:51:51.623Z,14.95
2022-10-14T19:54:18.262Z,14.86
2022-10-14T19:56:44.964Z,15.43
2022-10-14T19:59:13.621Z,15.37
2022-10-14T20:01:40.567Z,15.13
2022-10-14T20:04:07.506Z,15.43
2022-10-14T20:06:38.502Z,14.87
2022-10-14T20:09:06.243Z,15.41
2022-10-14T20:11:33.367Z,15.24
2022-10-14T20:14:02.351Z,15.05
2022-10-14T20:16:29.103Z,15.37
2022-10-14T20:18:57.830Z,15.23
2022-10-14T20:21:24.569Z,14.70
2022-10-14T20:23:51.318Z,14.81
2022-10-14T20:26:22.036Z,14.33
2022-10-14T20:28:52.128Z,14.93
2022-10-14T20:31:21.879Z,15.15
2022-10-14T20:33:49.204Z,14.06
2022-10-14T20:36:18.134Z,15.10
2022-10-14T20:38:44.935Z,14.97
2022-10-14T20:41:23.495Z,14.65
2022-10-14T20:43:50.741Z,14.57
2022-10-14T20:46:17.841Z,14.98
2022-10-14T20:48:44.792Z,15.11
2022-10-14T20:51:16.411Z,15.13
2022-10-14T20:53:45.210Z,15.13
2022-10-14T20:56:14.490Z,15.15
2022-10-14T20:58:43.611Z,14.52
2022-10-14T21:01:15.503Z,15.20
2022-10-14T21:03:50.401Z,15.23
2022-10-14T21:06:22.352Z,14.70
2022-10-14T21:08:52.481Z,15.19
2022-10-14T21:11:23.493Z,14.59
2022-10-14T21:13:59.952Z,14.59
2022-10-14T21:16:39.890Z,15.23
2022-10-14T21:19:08.726Z,15.16
2022-10-14T21:21:38.331Z,14.75
2022-10-14T21:24:08.823Z,14.47
2022-10-14T21:26:35.678Z,14.98
2022-10-14T21:29:04.613Z,15.14
2022-10-14T21:31:32.787Z,15.14
2022-10-14T21:34:06.080Z,14.66
2022-10-14T21:36:38.694Z,15.16
2022-10-14T21:39:26.208Z,15.13
2022-10-14T21:41:56.063Z,15.12
2022-10-14T21:44:22.960Z,14.16
2022-10-14T21:46:54.836Z,14.35
2022-10-14T21:49:23.735Z,15.00
2022-10-14T21:51:50.438Z,14.71
2022-10-14T21:54:21.793Z,15.15
2022-10-14T21:56:48.514Z,14.56
2022-10-14T21:59:15.372Z,15.00
2022-10-14T22:01:42.144Z,15.19
2022-10-14T22:04:10.223Z,15.09
2022-10-14T22:06:44.795Z,15.17
2022-10-14T22:09:16.093Z,14.62
2022-10-14T22:11:45.421Z,15.14
2022-10-14T22:14:19.063Z,15.08
2022-10-14T22:16:46.725Z,15.01
2022-10-14T22:19:18.174Z,14.90
2022-10-14T22:21:47.435Z,14.43
2022-10-14T22:24:14.527Z,14.78
2022-10-14T22:26:43.179Z,14.70
2022-10-14T22:29:15.302Z,14.51
2022-10-14T22:31:46.348Z,14.51
2022-10-14T22:34:15.418Z,14.61
2022-10-14T22:36:44.943Z,14.44
2022-10-14T22:39:18.604Z,14.53
2022-10-14T22:41:45.277Z,14.08
2022-10-14T22:44:12.017Z,13.63
2022-10-14T22:46:41.507Z,14.39
2022-10-14T22:49:10.855Z,14.35
2022-10-14T22:51:40.439Z,14.31
2022-10-14T22:54:07.690Z,14.13
2022-10-14T22:56:40.555Z,13.73
2022-10-14T22:59:11.437Z,13.18
2022-10-14T23:01:41.866Z,14.23
2022-10-14T23:04:11.725Z,14.19
2022-10-14T23:06:47.099Z,14.17
2022-10-14T23:09:19.179Z,13.51
2022-10-14T23:11:45.834Z,14.14
2022-10-14T23:14:12.497Z,13.56
2022-10-14T23:16:41.521Z,13.31
2022-10-14T23:19:08.208Z,14.10
2022-10-14T23:21:41.164Z,13.91
2022-10-14T23:24:10.426Z,12.58
2022-10-14T23:26:37.261Z,13.50
2022-10-14T23:29:08.912Z,13.69
2022-10-14T23:31:39.176Z,13.94
2022-10-14T23:34:08.214Z,13.62
2022-10-14T23:36:34.907Z,13.37
2022-10-14T23:39:01.619Z,13.72
2022-10-14T23:41:28.907Z,13.76
2022-10-14T23:43:57.874Z,13.30
2022-10-14T23:46:24.678Z,13.39
2022-10-14T23:49:01.226Z,12.88
2022-10-14T23:51:36.123Z,11.73
2022-10-14T23:54:03.113Z,13.69
2022-10-14T23:56:29.988Z,13.67
2022-10-14T23:59:01.000Z,12.97
